sensor_id;sensor_type;location;lat;lon;timestamp;temperature;humidity
32811;DHT22;65470;47.324;8.548;2023-07-20T00:01:08;22.60;99.80
32811;DHT22;65470;47.324;8.548;2023-07-20T00:03:33;22.60;99.60
32811;DHT22;65470;47.324;8.548;2023-07-20T00:05:59;22.50;99.90
32811;DHT22;65470;47.324;8.548;2023-07-20T00:08:24;22.50;99.90
32811;DHT22;65470;47.324;8.548;2023-07-20T00:10:50;22.50;99.90
32811;DHT22;65470;47.324;8.548;2023-07-20T00:13:16;22.50;99.90
32811;DHT22;65470;47.324;8.548;2023-07-20T00:15:44;22.40;99.90
32811;DHT22;65470;47.324;8.548;2023-07-20T00:18:09;22.40;99.90
32811;DHT22;65470;47.324;8.548;2023-07-20T00:20:35;22.40;99.90
32811;DHT22;65470;47.324;8.548;2023-07-20T00:23:01;22.40;99.90
32811;DHT22;65470;47.324;8.548;2023-07-20T00:25:26;22.40;99.90
32811;DHT22;65470;47.324;8.548;2023-07-20T00:27:52;22.40;99.90
32811;DHT22;65470;47.324;8.548;2023-07-20T00:30:18;22.40;99.90
32811;DHT22;65470;47.324;8.548;2023-07-20T00:32:44;22.40;99.90
32811;DHT22;65470;47.324;8.548;2023-07-20T00:35:10;22.30;99.90
32811;DHT22;65470;47.324;8.548;2023-07-20T00:37:37;22.20;99.90
32811;DHT22;65470;47.324;8.548;2023-07-20T00:40:03;22.10;99.90
32811;DHT22;65470;47.324;8.548;2023-07-20T00:42:33;22.10;99.90
32811;DHT22;65470;47.324;8.548;2023-07-20T00:44:59;22.10;99.90
32811;DHT22;65470;47.324;8.548;2023-07-20T00:47:24;22.00;99.90
32811;DHT22;65470;47.324;8.548;2023-07-20T00:49:51;22.00;99.90
32811;DHT22;65470;47.324;8.548;2023-07-20T00:52:19;22.00;99.90
32811;DHT22;65470;47.324;8.548;2023-07-20T00:54:46;22.00;99.90
32811;DHT22;65470;47.324;8.548;2023-07-20T00:57:14;22.00;99.90
32811;DHT22;65470;47.324;8.548;2023-07-20T00:59:40;22.00;99.90
32811;DHT22;65470;47.324;8.548;2023-07-20T01:02:06;22.00;99.90
32811;DHT22;65470;47.324;8.548;2023-07-20T01:04:32;21.90;99.90
32811;DHT22;65470;47.324;8.548;2023-07-20T01:12:12;21.90;99.90
32811;DHT22;65470;47.324;8.548;2023-07-20T01:14:39;21.90;99.90
32811;DHT22;65470;47.324;8.548;2023-07-20T01:17:05;21.90;99.90
32811;DHT22;65470;47.324;8.548;2023-07-20T01:19:31;21.90;99.90
32811;DHT22;65470;47.324;8.548;2023-07-20T01:22:47;21.90;99.90
32811;DHT22;65470;47.324;8.548;2023-07-20T01:25:02;22.00;99.90
32811;DHT22;65470;47.324;8.548;2023-07-20T01:27:42;22.00;99.90
32811;DHT22;65470;47.324;8.548;2023-07-20T01:30:35;22.00;99.90
32811;DHT22;65470;47.324;8.548;2023-07-20T01:33:06;22.00;99.90
32811;DHT22;65470;47.324;8.548;2023-07-20T01:35:33;22.00;99.90
32811;DHT22;65470;47.324;8.548;2023-07-20T01:38:00;22.00;99.90
32811;DHT22;65470;47.324;8.548;2023-07-20T01:40:27;22.00;99.90
32811;DHT22;65470;47.324;8.548;2023-07-20T01:42:53;22.00;99.90
32811;DHT22;65470;47.324;8.548;2023-07-20T01:45:19;22.10;99.90
32811;DHT22;65470;47.324;8.548;2023-07-20T01:47:44;22.00;99.90
32811;DHT22;65470;47.324;8.548;2023-07-20T01:50:11;21.90;99.90
32811;DHT22;65470;47.324;8.548;2023-07-20T01:52:36;21.90;99.90
32811;DHT22;65470;47.324;8.548;2023-07-20T01:55:02;21.80;99.90
32811;DHT22;65470;47.324;8.548;2023-07-20T01:57:29;21.70;99.90
32811;DHT22;65470;47.324;8.548;2023-07-20T01:59:55;21.60;99.90
32811;DHT22;65470;47.324;8.548;2023-07-20T02:05:39;21.70;99.90
32811;DHT22;65470;47.324;8.548;2023-07-20T02:08:07;21.70;99.90
32811;DHT22;65470;47.324;8.548;2023-07-20T02:10:32;21.80;99.90
32811;DHT22;65470;47.324;8.548;2023-07-20T02:12:58;21.90;99.90
32811;DHT22;65470;47.324;8.548;2023-07-20T02:15:24;21.90;99.90
32811;DHT22;65470;47.324;8.548;2023-07-20T02:17:49;21.90;99.90
32811;DHT22;65470;47.324;8.548;2023-07-20T02:20:15;22.00;99.90
32811;DHT22;65470;47.324;8.548;2023-07-20T02:22:41;22.00;99.90
32811;DHT22;65470;47.324;8.548;2023-07-20T02:25:07;22.00;99.90
32811;DHT22;65470;47.324;8.548;2023-07-20T02:27:34;22.10;99.90
32811;DHT22;65470;47.324;8.548;2023-07-20T02:29:59;22.10;99.90
32811;DHT22;65470;47.324;8.548;2023-07-20T02:32:25;22.10;99.90
32811;DHT22;65470;47.324;8.548;2023-07-20T02:34:51;22.10;99.90
32811;DHT22;65470;47.324;8.548;2023-07-20T02:37:17;22.10;99.90
32811;DHT22;65470;47.324;8.548;2023-07-20T02:39:42;22.10;99.90
32811;DHT22;65470;47.324;8.548;2023-07-20T02:42:08;22.10;99.90
32811;DHT22;65470;47.324;8.548;2023-07-20T02:44:34;22.20;99.90
32811;DHT22;65470;47.324;8.548;2023-07-20T02:47:00;22.20;99.90
32811;DHT22;65470;47.324;8.548;2023-07-20T02:49:26;22.20;99.90
32811;DHT22;65470;47.324;8.548;2023-07-20T02:51:52;22.20;99.90
32811;DHT22;65470;47.324;8.548;2023-07-20T02:54:18;22.20;99.90
32811;DHT22;65470;47.324;8.548;2023-07-20T02:56:43;22.20;99.90
32811;DHT22;65470;47.324;8.548;2023-07-20T02:59:09;22.20;99.90
32811;DHT22;65470;47.324;8.548;2023-07-20T03:01:35;22.20;99.90
32811;DHT22;65470;47.324;8.548;2023-07-20T03:04:00;22.20;99.90
32811;DHT22;65470;47.324;8.548;2023-07-20T03:06:26;22.20;99.90
32811;DHT22;65470;47.324;8.548;2023-07-20T03:08:52;22.20;99.90
32811;DHT22;65470;47.324;8.548;2023-07-20T03:11:19;22.20;99.90
32811;DHT22;65470;47.324;8.548;2023-07-20T03:13:46;22.20;99.90
32811;DHT22;65470;47.324;8.548;2023-07-20T03:16:13;22.20;99.90
32811;DHT22;65470;47.324;8.548;2023-07-20T03:18:43;22.20;99.90
32811;DHT22;65470;47.324;8.548;2023-07-20T03:21:09;22.20;99.90
32811;DHT22;65470;47.324;8.548;2023-07-20T03:23:37;22.20;99.90
32811;DHT22;65470;47.324;8.548;2023-07-20T03:26:02;22.20;99.90
32811;DHT22;65470;47.324;8.548;2023-07-20T03:28:28;22.20;99.90
32811;DHT22;65470;47.324;8.548;2023-07-20T03:30:57;22.20;99.90
32811;DHT22;65470;47.324;8.548;2023-07-20T03:33:27;22.20;99.90
32811;DHT22;65470;47.324;8.548;2023-07-20T03:35:54;22.10;99.90
32811;DHT22;65470;47.324;8.548;2023-07-20T03:38:21;22.20;99.90
32811;DHT22;65470;47.324;8.548;2023-07-20T03:41:04;22.20;99.90
32811;DHT22;65470;47.324;8.548;2023-07-20T03:43:30;22.20;99.90
32811;DHT22;65470;47.324;8.548;2023-07-20T03:45:56;22.20;99.90
32811;DHT22;65470;47.324;8.548;2023-07-20T03:48:24;22.20;99.90
32811;DHT22;65470;47.324;8.548;2023-07-20T03:50:52;22.10;99.90
32811;DHT22;65470;47.324;8.548;2023-07-20T03:53:19;22.20;99.90
32811;DHT22;65470;47.324;8.548;2023-07-20T03:55:49;22.10;99.90
32811;DHT22;65470;47.324;8.548;2023-07-20T03:58:15;22.10;99.90
32811;DHT22;65470;47.324;8.548;2023-07-20T04:00:49;22.10;99.90
32811;DHT22;65470;47.324;8.548;2023-07-20T04:03:16;22.00;99.90
32811;DHT22;65470;47.324;8.548;2023-07-20T04:05:43;22.10;99.90
32811;DHT22;65470;47.324;8.548;2023-07-20T04:08:08;22.10;99.90
32811;DHT22;65470;47.324;8.548;2023-07-20T04:10:34;22.10;99.90
32811;DHT22;65470;47.324;8.548;2023-07-20T04:13:00;22.00;99.90
32811;DHT22;65470;47.324;8.548;2023-07-20T04:15:26;22.00;99.90
32811;DHT22;65470;47.324;8.548;2023-07-20T04:17:52;22.10;99.90
32811;DHT22;65470;47.324;8.548;2023-07-20T04:20:18;22.10;99.90
32811;DHT22;65470;47.324;8.548;2023-07-20T04:22:43;22.10;99.90
32811;DHT22;65470;47.324;8.548;2023-07-20T04:25:09;22.10;99.90
32811;DHT22;65470;47.324;8.548;2023-07-20T04:27:35;22.10;99.90
32811;DHT22;65470;47.324;8.548;2023-07-20T04:30:01;22.10;99.90
32811;DHT22;65470;47.324;8.548;2023-07-20T04:32:27;22.10;99.90
32811;DHT22;65470;47.324;8.548;2023-07-20T04:34:53;22.10;99.90
32811;DHT22;65470;47.324;8.548;2023-07-20T04:37:19;22.10;99.90
32811;DHT22;65470;47.324;8.548;2023-07-20T04:39:44;22.10;99.90
32811;DHT22;65470;47.324;8.548;2023-07-20T04:42:10;22.00;99.90
32811;DHT22;65470;47.324;8.548;2023-07-20T04:44:35;22.00;99.90
32811;DHT22;65470;47.324;8.548;2023-07-20T04:47:01;22.00;99.90
32811;DHT22;65470;47.324;8.548;2023-07-20T04:49:27;22.00;99.90
32811;DHT22;65470;47.324;8.548;2023-07-20T04:51:53;22.10;99.90
32811;DHT22;65470;47.324;8.548;2023-07-20T04:54:19;22.10;99.90
32811;DHT22;65470;47.324;8.548;2023-07-20T04:56:45;22.10;99.90
32811;DHT22;65470;47.324;8.548;2023-07-20T04:59:11;22.10;99.90
32811;DHT22;65470;47.324;8.548;2023-07-20T05:01:36;22.10;99.90
32811;DHT22;65470;47.324;8.548;2023-07-20T05:04:02;22.20;99.90
32811;DHT22;65470;47.324;8.548;2023-07-20T05:06:28;22.20;99.90
32811;DHT22;65470;47.324;8.548;2023-07-20T05:08:53;22.30;99.90
32811;DHT22;65470;47.324;8.548;2023-07-20T05:11:19;22.40;99.90
32811;DHT22;65470;47.324;8.548;2023-07-20T05:13:45;22.40;99.90
32811;DHT22;65470;47.324;8.548;2023-07-20T05:16:11;22.50;99.90
32811;DHT22;65470;47.324;8.548;2023-07-20T05:18:36;22.50;99.90
32811;DHT22;65470;47.324;8.548;2023-07-20T05:21:02;22.60;99.90
32811;DHT22;65470;47.324;8.548;2023-07-20T05:23:28;22.70;99.90
32811;DHT22;65470;47.324;8.548;2023-07-20T05:25:57;22.80;99.90
32811;DHT22;65470;47.324;8.548;2023-07-20T05:28:26;22.90;99.90
32811;DHT22;65470;47.324;8.548;2023-07-20T05:30:52;22.90;99.90
32811;DHT22;65470;47.324;8.548;2023-07-20T05:33:19;23.00;99.90
32811;DHT22;65470;47.324;8.548;2023-07-20T05:35:45;23.10;99.90
32811;DHT22;65470;47.324;8.548;2023-07-20T05:38:11;23.20;99.90
32811;DHT22;65470;47.324;8.548;2023-07-20T05:40:44;23.30;99.90
32811;DHT22;65470;47.324;8.548;2023-07-20T05:43:10;23.40;99.90
32811;DHT22;65470;47.324;8.548;2023-07-20T05:45:36;23.50;99.90
32811;DHT22;65470;47.324;8.548;2023-07-20T05:48:02;23.60;99.90
32811;DHT22;65470;47.324;8.548;2023-07-20T05:50:27;23.80;99.90
32811;DHT22;65470;47.324;8.548;2023-07-20T05:52:54;24.10;99.90
32811;DHT22;65470;47.324;8.548;2023-07-20T05:55:20;24.20;99.90
32811;DHT22;65470;47.324;8.548;2023-07-20T05:57:46;24.20;99.90
32811;DHT22;65470;47.324;8.548;2023-07-20T06:00:14;24.20;99.90
32811;DHT22;65470;47.324;8.548;2023-07-20T06:02:39;24.00;99.90
32811;DHT22;65470;47.324;8.548;2023-07-20T06:05:07;23.90;99.90
32811;DHT22;65470;47.324;8.548;2023-07-20T06:07:36;23.90;99.90
32811;DHT22;65470;47.324;8.548;2023-07-20T06:10:02;23.90;99.90
32811;DHT22;65470;47.324;8.548;2023-07-20T06:12:28;24.10;99.90
32811;DHT22;65470;47.324;8.548;2023-07-20T06:14:53;24.40;99.90
32811;DHT22;65470;47.324;8.548;2023-07-20T06:17:19;24.70;99.90
32811;DHT22;65470;47.324;8.548;2023-07-20T06:19:45;24.90;99.90
32811;DHT22;65470;47.324;8.548;2023-07-20T06:22:11;24.90;99.60
32811;DHT22;65470;47.324;8.548;2023-07-20T06:24:36;25.00;99.10
32811;DHT22;65470;47.324;8.548;2023-07-20T06:27:02;25.10;99.00
32811;DHT22;65470;47.324;8.548;2023-07-20T06:29:29;25.10;98.40
32811;DHT22;65470;47.324;8.548;2023-07-20T06:31:55;25.00;97.90
32811;DHT22;65470;47.324;8.548;2023-07-20T06:34:20;25.00;98.50
32811;DHT22;65470;47.324;8.548;2023-07-20T06:36:46;24.90;98.80
32811;DHT22;65470;47.324;8.548;2023-07-20T06:39:12;24.90;98.20
32811;DHT22;65470;47.324;8.548;2023-07-20T06:41:37;25.00;98.80
32811;DHT22;65470;47.324;8.548;2023-07-20T06:44:03;25.00;98.30
32811;DHT22;65470;47.324;8.548;2023-07-20T06:46:28;25.00;97.40
32811;DHT22;65470;47.324;8.548;2023-07-20T06:48:54;25.00;97.20
32811;DHT22;65470;47.324;8.548;2023-07-20T06:51:20;25.00;97.90
32811;DHT22;65470;47.324;8.548;2023-07-20T06:53:46;25.20;97.90
32811;DHT22;65470;47.324;8.548;2023-07-20T06:56:11;26.10;98.50
32811;DHT22;65470;47.324;8.548;2023-07-20T06:58:37;27.00;96.90
32811;DHT22;65470;47.324;8.548;2023-07-20T07:01:07;27.40;95.20
32811;DHT22;65470;47.324;8.548;2023-07-20T07:03:33;27.20;94.30
32811;DHT22;65470;47.324;8.548;2023-07-20T07:05:59;27.10;95.30
32811;DHT22;65470;47.324;8.548;2023-07-20T07:08:25;27.90;94.40
32811;DHT22;65470;47.324;8.548;2023-07-20T07:10:52;28.20;92.90
32811;DHT22;65470;47.324;8.548;2023-07-20T07:13:17;28.30;93.80
32811;DHT22;65470;47.324;8.548;2023-07-20T07:15:43;28.80;93.10
32811;DHT22;65470;47.324;8.548;2023-07-20T07:18:09;29.70;93.30
32811;DHT22;65470;47.324;8.548;2023-07-20T07:20:34;30.30;90.30
32811;DHT22;65470;47.324;8.548;2023-07-20T07:23:00;30.20;89.80
32811;DHT22;65470;47.324;8.548;2023-07-20T07:25:26;30.00;90.40
32811;DHT22;65470;47.324;8.548;2023-07-20T07:27:53;29.90;90.00
32811;DHT22;65470;47.324;8.548;2023-07-20T07:30:19;29.50;89.20
32811;DHT22;65470;47.324;8.548;2023-07-20T07:32:45;29.10;91.10
32811;DHT22;65470;47.324;8.548;2023-07-20T07:35:11;29.40;90.50
32811;DHT22;65470;47.324;8.548;2023-07-20T07:37:37;29.70;90.00
32811;DHT22;65470;47.324;8.548;2023-07-20T07:40:03;30.00;89.60
32811;DHT22;65470;47.324;8.548;2023-07-20T07:42:29;30.70;89.20
32811;DHT22;65470;47.324;8.548;2023-07-20T07:44:55;31.30;86.60
32811;DHT22;65470;47.324;8.548;2023-07-20T07:47:20;32.00;84.70
32811;DHT22;65470;47.324;8.548;2023-07-20T07:49:46;32.60;84.50
32811;DHT22;65470;47.324;8.548;2023-07-20T07:52:11;32.50;83.20
32811;DHT22;65470;47.324;8.548;2023-07-20T07:54:37;32.90;82.30
32811;DHT22;65470;47.324;8.548;2023-07-20T07:57:03;33.50;82.70
32811;DHT22;65470;47.324;8.548;2023-07-20T07:59:28;33.60;79.40
32811;DHT22;65470;47.324;8.548;2023-07-20T08:01:56;33.10;75.90
32811;DHT22;65470;47.324;8.548;2023-07-20T08:04:23;32.60;78.70
32811;DHT22;65470;47.324;8.548;2023-07-20T08:06:49;32.10;77.70
32811;DHT22;65470;47.324;8.548;2023-07-20T08:09:15;31.90;80.30
32811;DHT22;65470;47.324;8.548;2023-07-20T08:11:41;32.10;78.20
32811;DHT22;65470;47.324;8.548;2023-07-20T08:14:06;32.70;76.20
32811;DHT22;65470;47.324;8.548;2023-07-20T08:16:32;33.20;78.20
32811;DHT22;65470;47.324;8.548;2023-07-20T08:18:58;33.80;76.60
32811;DHT22;65470;47.324;8.548;2023-07-20T08:21:24;33.90;74.70
32811;DHT22;65470;47.324;8.548;2023-07-20T08:23:50;34.00;74.80
32811;DHT22;65470;47.324;8.548;2023-07-20T08:26:16;34.30;71.30
32811;DHT22;65470;47.324;8.548;2023-07-20T08:28:43;34.70;71.30
32811;DHT22;65470;47.324;8.548;2023-07-20T08:31:09;34.90;69.30
32811;DHT22;65470;47.324;8.548;2023-07-20T08:33:35;34.60;70.10
32811;DHT22;65470;47.324;8.548;2023-07-20T08:36:01;34.60;69.70
32811;DHT22;65470;47.324;8.548;2023-07-20T08:38:27;34.60;71.00
32811;DHT22;65470;47.324;8.548;2023-07-20T08:40:54;34.50;73.10
32811;DHT22;65470;47.324;8.548;2023-07-20T08:43:22;34.90;68.10
32811;DHT22;65470;47.324;8.548;2023-07-20T08:45:54;35.60;69.70
32811;DHT22;65470;47.324;8.548;2023-07-20T08:48:24;35.90;66.00
32811;DHT22;65470;47.324;8.548;2023-07-20T08:50:51;36.00;66.60
32811;DHT22;65470;47.324;8.548;2023-07-20T08:53:17;36.00;67.70
32811;DHT22;65470;47.324;8.548;2023-07-20T08:55:45;36.30;64.50
32811;DHT22;65470;47.324;8.548;2023-07-20T08:58:13;36.30;63.90
32811;DHT22;65470;47.324;8.548;2023-07-20T09:00:41;36.50;63.90
32811;DHT22;65470;47.324;8.548;2023-07-20T09:03:07;37.00;63.30
32811;DHT22;65470;47.324;8.548;2023-07-20T09:05:34;37.30;61.10
32811;DHT22;65470;47.324;8.548;2023-07-20T09:08:00;37.30;61.70
32811;DHT22;65470;47.324;8.548;2023-07-20T09:10:27;37.30;60.60
32811;DHT22;65470;47.324;8.548;2023-07-20T09:12:53;37.40;59.00
32811;DHT22;65470;47.324;8.548;2023-07-20T09:15:21;37.70;60.80
32811;DHT22;65470;47.324;8.548;2023-07-20T09:17:51;37.80;59.00
32811;DHT22;65470;47.324;8.548;2023-07-20T09:20:19;38.30;59.20
32811;DHT22;65470;47.324;8.548;2023-07-20T09:22:45;38.00;58.00
32811;DHT22;65470;47.324;8.548;2023-07-20T09:25:13;38.00;59.60
32811;DHT22;65470;47.324;8.548;2023-07-20T09:27:48;38.10;59.90
32811;DHT22;65470;47.324;8.548;2023-07-20T09:30:15;38.10;57.60
32811;DHT22;65470;47.324;8.548;2023-07-20T09:35:15;37.90;57.90
32811;DHT22;65470;47.324;8.548;2023-07-20T09:37:46;38.10;56.70
32811;DHT22;65470;47.324;8.548;2023-07-20T09:40:15;37.70;56.60
32811;DHT22;65470;47.324;8.548;2023-07-20T09:42:42;36.10;58.90
32811;DHT22;65470;47.324;8.548;2023-07-20T09:45:09;35.50;60.60
32811;DHT22;65470;47.324;8.548;2023-07-20T09:47:36;34.60;61.80
32811;DHT22;65470;47.324;8.548;2023-07-20T09:50:03;34.90;61.50
32811;DHT22;65470;47.324;8.548;2023-07-20T09:52:30;35.50;64.20
32811;DHT22;65470;47.324;8.548;2023-07-20T09:54:56;36.30;61.50
32811;DHT22;65470;47.324;8.548;2023-07-20T09:57:23;36.90;58.50
32811;DHT22;65470;47.324;8.548;2023-07-20T09:59:49;37.30;59.50
32811;DHT22;65470;47.324;8.548;2023-07-20T10:02:25;37.30;57.00
32811;DHT22;65470;47.324;8.548;2023-07-20T10:04:53;36.90;58.20
32811;DHT22;65470;47.324;8.548;2023-07-20T10:07:19;35.70;59.70
32811;DHT22;65470;47.324;8.548;2023-07-20T10:09:48;35.30;62.20
32811;DHT22;65470;47.324;8.548;2023-07-20T10:12:18;34.90;62.50
32811;DHT22;65470;47.324;8.548;2023-07-20T10:14:53;35.50;64.30
32811;DHT22;65470;47.324;8.548;2023-07-20T10:17:21;36.10;61.80
32811;DHT22;65470;47.324;8.548;2023-07-20T10:19:50;36.70;58.60
32811;DHT22;65470;47.324;8.548;2023-07-20T10:22:19;37.00;58.60
32811;DHT22;65470;47.324;8.548;2023-07-20T10:24:48;37.20;58.10
32811;DHT22;65470;47.324;8.548;2023-07-20T10:27:15;37.80;58.10
32811;DHT22;65470;47.324;8.548;2023-07-20T10:29:41;38.00;57.70
32811;DHT22;65470;47.324;8.548;2023-07-20T10:32:08;38.10;58.20
32811;DHT22;65470;47.324;8.548;2023-07-20T10:34:34;37.20;56.90
32811;DHT22;65470;47.324;8.548;2023-07-20T10:37:00;35.60;58.90
32811;DHT22;65470;47.324;8.548;2023-07-20T10:39:27;34.70;63.10
32811;DHT22;65470;47.324;8.548;2023-07-20T10:42:00;34.60;65.20
32811;DHT22;65470;47.324;8.548;2023-07-20T10:44:27;35.40;64.20
32811;DHT22;65470;47.324;8.548;2023-07-20T10:47:02;36.20;60.10
32811;DHT22;65470;47.324;8.548;2023-07-20T10:49:28;36.70;59.30
32811;DHT22;65470;47.324;8.548;2023-07-20T10:51:58;37.10;59.80
32811;DHT22;65470;47.324;8.548;2023-07-20T10:56:55;36.90;56.90
32811;DHT22;65470;47.324;8.548;2023-07-20T11:01:57;35.10;60.70
32811;DHT22;65470;47.324;8.548;2023-07-20T11:04:42;34.30;61.40
32811;DHT22;65470;47.324;8.548;2023-07-20T11:07:09;34.90;60.80
32811;DHT22;65470;47.324;8.548;2023-07-20T11:09:36;35.60;58.90
32811;DHT22;65470;47.324;8.548;2023-07-20T11:12:16;35.90;59.20
32811;DHT22;65470;47.324;8.548;2023-07-20T11:14:55;36.00;60.70
32811;DHT22;65470;47.324;8.548;2023-07-20T11:17:32;36.50;58.70
32811;DHT22;65470;47.324;8.548;2023-07-20T11:19:59;37.10;58.60
32811;DHT22;65470;47.324;8.548;2023-07-20T11:22:27;36.80;60.20
32811;DHT22;65470;47.324;8.548;2023-07-20T11:24:56;36.20;59.30
32811;DHT22;65470;47.324;8.548;2023-07-20T11:27:22;35.70;61.50
32811;DHT22;65470;47.324;8.548;2023-07-20T11:29:48;35.50;58.40
32811;DHT22;65470;47.324;8.548;2023-07-20T11:32:23;35.90;59.30
32811;DHT22;65470;47.324;8.548;2023-07-20T11:34:49;36.50;57.20
32811;DHT22;65470;47.324;8.548;2023-07-20T11:37:16;36.20;58.90
32811;DHT22;65470;47.324;8.548;2023-07-20T11:39:42;35.60;58.70
32811;DHT22;65470;47.324;8.548;2023-07-20T11:42:08;34.40;60.00
32811;DHT22;65470;47.324;8.548;2023-07-20T11:44:34;33.70;62.40
32811;DHT22;65470;47.324;8.548;2023-07-20T11:47:10;33.10;65.00
32811;DHT22;65470;47.324;8.548;2023-07-20T11:49:40;33.00;65.40
32811;DHT22;65470;47.324;8.548;2023-07-20T11:52:07;33.80;63.90
32811;DHT22;65470;47.324;8.548;2023-07-20T11:54:34;33.90;62.40
32811;DHT22;65470;47.324;8.548;2023-07-20T11:57:01;34.60;60.80
32811;DHT22;65470;47.324;8.548;2023-07-20T11:59:27;35.30;61.80
32811;DHT22;65470;47.324;8.548;2023-07-20T12:01:52;35.90;60.60
32811;DHT22;65470;47.324;8.548;2023-07-20T12:04:18;36.60;57.90
32811;DHT22;65470;47.324;8.548;2023-07-20T12:06:48;36.50;57.50
32811;DHT22;65470;47.324;8.548;2023-07-20T12:09:17;36.90;57.10
32811;DHT22;65470;47.324;8.548;2023-07-20T12:11:44;37.10;56.10
32811;DHT22;65470;47.324;8.548;2023-07-20T12:14:12;37.10;57.30
32811;DHT22;65470;47.324;8.548;2023-07-20T12:16:38;37.00;56.30
32811;DHT22;65470;47.324;8.548;2023-07-20T12:19:09;37.20;58.80
32811;DHT22;65470;47.324;8.548;2023-07-20T12:21:37;37.20;57.20
32811;DHT22;65470;47.324;8.548;2023-07-20T12:24:04;36.90;57.60
32811;DHT22;65470;47.324;8.548;2023-07-20T12:26:30;36.80;57.10
32811;DHT22;65470;47.324;8.548;2023-07-20T12:28:57;36.90;57.80
32811;DHT22;65470;47.324;8.548;2023-07-20T12:31:24;36.90;58.10
32811;DHT22;65470;47.324;8.548;2023-07-20T12:33:50;36.80;59.90
32811;DHT22;65470;47.324;8.548;2023-07-20T12:36:17;36.70;59.40
32811;DHT22;65470;47.324;8.548;2023-07-20T12:38:43;36.30;58.50
32811;DHT22;65470;47.324;8.548;2023-07-20T12:41:10;35.60;60.50
32811;DHT22;65470;47.324;8.548;2023-07-20T12:43:40;35.60;58.80
32811;DHT22;65470;47.324;8.548;2023-07-20T12:46:06;35.40;56.60
32811;DHT22;65470;47.324;8.548;2023-07-20T12:48:32;35.00;57.60
32811;DHT22;65470;47.324;8.548;2023-07-20T12:50:58;34.30;58.80
32811;DHT22;65470;47.324;8.548;2023-07-20T12:53:24;33.60;62.40
32811;DHT22;65470;47.324;8.548;2023-07-20T12:55:49;33.20;64.60
32811;DHT22;65470;47.324;8.548;2023-07-20T12:58:15;33.20;63.20
32811;DHT22;65470;47.324;8.548;2023-07-20T13:00:41;33.40;64.50
32811;DHT22;65470;47.324;8.548;2023-07-20T13:03:07;33.50;63.30
32811;DHT22;65470;47.324;8.548;2023-07-20T13:05:34;33.60;60.60
32811;DHT22;65470;47.324;8.548;2023-07-20T13:08:01;33.50;59.30
32811;DHT22;65470;47.324;8.548;2023-07-20T13:10:27;33.40;63.20
32811;DHT22;65470;47.324;8.548;2023-07-20T13:12:53;33.70;64.70
32811;DHT22;65470;47.324;8.548;2023-07-20T13:15:18;33.70;65.00
32811;DHT22;65470;47.324;8.548;2023-07-20T13:17:44;33.80;61.40
32811;DHT22;65470;47.324;8.548;2023-07-20T13:20:10;33.90;63.10
32811;DHT22;65470;47.324;8.548;2023-07-20T13:22:40;34.00;65.30
32811;DHT22;65470;47.324;8.548;2023-07-20T13:26:45;33.80;65.50
32811;DHT22;65470;47.324;8.548;2023-07-20T13:29:11;33.70;63.00
32811;DHT22;65470;47.324;8.548;2023-07-20T13:31:36;33.70;62.80
32811;DHT22;65470;47.324;8.548;2023-07-20T13:34:02;33.60;64.10
32811;DHT22;65470;47.324;8.548;2023-07-20T13:36:28;33.50;62.20
32811;DHT22;65470;47.324;8.548;2023-07-20T13:38:54;33.30;64.50
32811;DHT22;65470;47.324;8.548;2023-07-20T13:41:19;33.10;65.60
32811;DHT22;65470;47.324;8.548;2023-07-20T13:43:45;33.00;63.70
32811;DHT22;65470;47.324;8.548;2023-07-20T13:46:11;33.10;64.20
32811;DHT22;65470;47.324;8.548;2023-07-20T13:48:36;33.10;63.20
32811;DHT22;65470;47.324;8.548;2023-07-20T13:51:02;33.00;64.70
32811;DHT22;65470;47.324;8.548;2023-07-20T13:53:27;33.10;64.60
32811;DHT22;65470;47.324;8.548;2023-07-20T13:55:54;32.90;65.10
32811;DHT22;65470;47.324;8.548;2023-07-20T13:58:19;32.90;64.70
32811;DHT22;65470;47.324;8.548;2023-07-20T14:00:45;33.00;63.50
32811;DHT22;65470;47.324;8.548;2023-07-20T14:03:11;33.00;66.40
32811;DHT22;65470;47.324;8.548;2023-07-20T14:05:36;33.00;66.80
32811;DHT22;65470;47.324;8.548;2023-07-20T14:08:02;33.10;64.20
32811;DHT22;65470;47.324;8.548;2023-07-20T14:10:27;33.10;67.00
32811;DHT22;65470;47.324;8.548;2023-07-20T14:12:53;33.10;65.50
32811;DHT22;65470;47.324;8.548;2023-07-20T14:15:19;33.10;64.90
32811;DHT22;65470;47.324;8.548;2023-07-20T14:17:45;33.20;63.50
32811;DHT22;65470;47.324;8.548;2023-07-20T14:20:11;33.20;62.40
32811;DHT22;65470;47.324;8.548;2023-07-20T14:22:37;33.20;64.50
32811;DHT22;65470;47.324;8.548;2023-07-20T14:25:02;33.30;65.60
32811;DHT22;65470;47.324;8.548;2023-07-20T14:27:28;33.40;63.70
32811;DHT22;65470;47.324;8.548;2023-07-20T14:29:54;33.40;62.60
32811;DHT22;65470;47.324;8.548;2023-07-20T14:32:20;33.50;63.50
32811;DHT22;65470;47.324;8.548;2023-07-20T14:34:46;33.60;63.80
32811;DHT22;65470;47.324;8.548;2023-07-20T14:37:11;33.70;62.90
32811;DHT22;65470;47.324;8.548;2023-07-20T14:39:38;33.80;63.50
32811;DHT22;65470;47.324;8.548;2023-07-20T14:42:04;33.60;64.50
32811;DHT22;65470;47.324;8.548;2023-07-20T14:44:30;33.70;62.50
32811;DHT22;65470;47.324;8.548;2023-07-20T14:46:55;33.50;60.80
32811;DHT22;65470;47.324;8.548;2023-07-20T14:49:21;33.30;61.90
32811;DHT22;65470;47.324;8.548;2023-07-20T14:51:47;33.20;65.60
32811;DHT22;65470;47.324;8.548;2023-07-20T14:54:13;33.10;64.60
32811;DHT22;65470;47.324;8.548;2023-07-20T14:56:39;32.90;66.80
32811;DHT22;65470;47.324;8.548;2023-07-20T14:59:06;32.90;65.60
32811;DHT22;65470;47.324;8.548;2023-07-20T15:01:32;32.60;63.80
32811;DHT22;65470;47.324;8.548;2023-07-20T15:03:57;32.30;64.20
32811;DHT22;65470;47.324;8.548;2023-07-20T15:06:26;32.20;66.00
32811;DHT22;65470;47.324;8.548;2023-07-20T15:08:52;32.30;63.90
32811;DHT22;65470;47.324;8.548;2023-07-20T15:11:18;32.30;68.10
32811;DHT22;65470;47.324;8.548;2023-07-20T15:13:43;32.30;65.90
32811;DHT22;65470;47.324;8.548;2023-07-20T15:16:09;32.10;66.10
32811;DHT22;65470;47.324;8.548;2023-07-20T15:18:36;32.20;65.90
32811;DHT22;65470;47.324;8.548;2023-07-20T15:21:02;32.20;65.50
32811;DHT22;65470;47.324;8.548;2023-07-20T15:23:27;32.10;65.40
32811;DHT22;65470;47.324;8.548;2023-07-20T15:25:53;31.90;65.20
32811;DHT22;65470;47.324;8.548;2023-07-20T15:28:19;31.80;65.40
32811;DHT22;65470;47.324;8.548;2023-07-20T15:30:44;31.40;66.70
32811;DHT22;65470;47.324;8.548;2023-07-20T15:33:10;31.10;68.00
32811;DHT22;65470;47.324;8.548;2023-07-20T15:35:36;30.90;67.60
32811;DHT22;65470;47.324;8.548;2023-07-20T15:38:02;30.70;69.80
32811;DHT22;65470;47.324;8.548;2023-07-20T15:40:27;30.70;70.30
32811;DHT22;65470;47.324;8.548;2023-07-20T15:42:53;30.60;69.60
32811;DHT22;65470;47.324;8.548;2023-07-20T15:45:19;30.50;69.50